sensor_id;sensor_type;location;lat;lon;timestamp;pressure;altitude;pressure_sealevel;temperature;humidity
13068;BME280;6600;51.362;6.686;2023-05-24T00:00:32;101967.00;;;9.26;91.50
13068;BME280;6600;51.362;6.686;2023-05-24T00:02:58;101964.97;;;9.28;91.50
13068;BME280;6600;51.362;6.686;2023-05-24T00:05:24;101965.31;;;9.25;91.38
13068;BME280;6600;51.362;6.686;2023-05-24T00:07:49;101962.38;;;9.20;91.61
13068;BME280;6600;51.362;6.686;2023-05-24T00:10:15;101970.19;;;9.22;91.38
13068;BME280;6600;51.362;6.686;2023-05-24T00:12:40;101967.72;;;9.20;91.56
13068;BME280;6600;51.362;6.686;2023-05-24T00:15:06;101968.72;;;9.19;91.95
13068;BME280;6600;51.362;6.686;2023-05-24T00:17:31;101968.03;;;9.17;91.80
13068;BME280;6600;51.362;6.686;2023-05-24T00:19:58;101964.19;;;9.20;91.79
13068;BME280;6600;51.362;6.686;2023-05-24T00:22:24;101958.00;;;9.19;92.08
13068;BME280;6600;51.362;6.686;2023-05-24T00:24:50;101954.84;;;9.16;92.25
13068;BME280;6600;51.362;6.686;2023-05-24T00:27:15;101957.06;;;9.12;92.21
13068;BME280;6600;51.362;6.686;2023-05-24T00:29:41;101957.34;;;9.17;91.92
13068;BME280;6600;51.362;6.686;2023-05-24T00:32:07;101949.75;;;9.06;92.47
13068;BME280;6600;51.362;6.686;2023-05-24T00:34:32;101946.38;;;9.04;92.56
13068;BME280;6600;51.362;6.686;2023-05-24T00:36:58;101948.91;;;9.05;92.36
13068;BME280;6600;51.362;6.686;2023-05-24T00:39:25;101954.41;;;9.04;92.74
13068;BME280;6600;51.362;6.686;2023-05-24T00:41:50;101944.41;;;8.98;92.94
13068;BME280;6600;51.362;6.686;2023-05-24T00:44:16;101940.44;;;8.94;93.57
13068;BME280;6600;51.362;6.686;2023-05-24T00:46:41;101945.41;;;8.97;93.10
13068;BME280;6600;51.362;6.686;2023-05-24T00:49:07;101943.78;;;8.96;93.17
13068;BME280;6600;51.362;6.686;2023-05-24T00:51:33;101942.47;;;8.92;93.29
13068;BME280;6600;51.362;6.686;2023-05-24T00:53:59;101935.78;;;8.88;93.58
13068;BME280;6600;51.362;6.686;2023-05-24T00:56:24;101939.47;;;8.87;93.74
13068;BME280;6600;51.362;6.686;2023-05-24T00:58:51;101935.78;;;8.88;93.62
13068;BME280;6600;51.362;6.686;2023-05-24T01:01:18;101933.63;;;8.83;94.53
13068;BME280;6600;51.362;6.686;2023-05-24T01:03:44;101935.16;;;8.78;95.05
13068;BME280;6600;51.362;6.686;2023-05-24T01:06:12;101932.78;;;8.83;94.84
13068;BME280;6600;51.362;6.686;2023-05-24T01:13:42;101940.38;;;8.71;95.43
13068;BME280;6600;51.362;6.686;2023-05-24T01:16:14;101935.88;;;8.72;95.83
13068;BME280;6600;51.362;6.686;2023-05-24T01:18:46;101928.84;;;8.71;95.89
13068;BME280;6600;51.362;6.686;2023-05-24T01:27:05;101934.56;;;8.68;96.24
13068;BME280;6600;51.362;6.686;2023-05-24T01:29:32;101928.88;;;8.62;96.71
13068;BME280;6600;51.362;6.686;2023-05-24T01:31:58;101930.22;;;8.58;97.07
13068;BME280;6600;51.362;6.686;2023-05-24T01:34:24;101933.22;;;8.63;96.96
13068;BME280;6600;51.362;6.686;2023-05-24T01:36:50;101933.22;;;8.63;96.93
13068;BME280;6600;51.362;6.686;2023-05-24T01:39:15;101925.72;;;8.59;97.51
13068;BME280;6600;51.362;6.686;2023-05-24T01:41:53;101921.88;;;8.61;97.32
13068;BME280;6600;51.362;6.686;2023-05-24T01:44:35;101916.22;;;8.56;97.74
13068;BME280;6600;51.362;6.686;2023-05-24T01:49:37;101905.53;;;8.56;98.18
13068;BME280;6600;51.362;6.686;2023-05-24T01:52:11;101907.22;;;8.57;97.97
13068;BME280;6600;51.362;6.686;2023-05-24T01:54:38;101908.41;;;8.55;98.24
13068;BME280;6600;51.362;6.686;2023-05-24T01:57:08;101908.72;;;8.52;98.06
13068;BME280;6600;51.362;6.686;2023-05-24T01:59:35;101909.91;;;8.49;98.55
13068;BME280;6600;51.362;6.686;2023-05-24T02:02:01;101918.41;;;8.45;98.64
13068;BME280;6600;51.362;6.686;2023-05-24T02:04:27;101913.56;;;8.48;98.36
13068;BME280;6600;51.362;6.686;2023-05-24T02:06:52;101914.25;;;8.42;98.69
13068;BME280;6600;51.362;6.686;2023-05-24T02:09:18;101910.25;;;8.46;98.57
13068;BME280;6600;51.362;6.686;2023-05-24T02:11:43;101904.56;;;8.49;98.71
13068;BME280;6600;51.362;6.686;2023-05-24T02:14:08;101899.56;;;8.46;98.42
13068;BME280;6600;51.362;6.686;2023-05-24T02:16:34;101896.56;;;8.41;98.99
13068;BME280;6600;51.362;6.686;2023-05-24T02:19:07;101899.09;;;8.35;98.92
13068;BME280;6600;51.362;6.686;2023-05-24T02:21:32;101908.28;;;8.32;99.31
13068;BME280;6600;51.362;6.686;2023-05-24T02:23:57;101906.63;;;8.31;99.69
13068;BME280;6600;51.362;6.686;2023-05-24T02:26:23;101899.28;;;8.33;99.44
13068;BME280;6600;51.362;6.686;2023-05-24T02:28:48;101908.63;;;8.29;99.80
13068;BME280;6600;51.362;6.686;2023-05-24T02:31:14;101899.63;;;8.30;100.00
13068;BME280;6600;51.362;6.686;2023-05-24T02:33:39;101905.28;;;8.27;100.00
13068;BME280;6600;51.362;6.686;2023-05-24T02:36:04;101905.81;;;8.31;100.00
13068;BME280;6600;51.362;6.686;2023-05-24T02:38:30;101908.28;;;8.32;100.00
13068;BME280;6600;51.362;6.686;2023-05-24T02:40:56;101909.47;;;8.30;100.00
13068;BME280;6600;51.362;6.686;2023-05-24T02:43:21;101915.28;;;8.25;100.00
13068;BME280;6600;51.362;6.686;2023-05-24T02:45:46;101916.28;;;8.24;100.00
13068;BME280;6600;51.362;6.686;2023-05-24T02:48:12;101910.28;;;8.22;100.00
13068;BME280;6600;51.362;6.686;2023-05-24T02:50:37;101928.34;;;8.20;100.00
13068;BME280;6600;51.362;6.686;2023-05-24T02:53:02;101917.47;;;8.22;100.00
13068;BME280;6600;51.362;6.686;2023-05-24T02:55:28;101919.66;;;8.18;100.00
13068;BME280;6600;51.362;6.686;2023-05-24T02:57:54;101920.63;;;8.17;100.00
13068;BME280;6600;51.362;6.686;2023-05-24T03:00:19;101913.31;;;8.11;100.00
13068;BME280;6600;51.362;6.686;2023-05-24T03:02:44;101917.16;;;8.08;100.00
13068;BME280;6600;51.362;6.686;2023-05-24T03:05:12;101922.66;;;8.07;100.00
13068;BME280;6600;51.362;6.686;2023-05-24T03:07:37;101925.03;;;8.10;100.00
13068;BME280;6600;51.362;6.686;2023-05-24T03:10:02;101920.34;;;8.04;100.00
13068;BME280;6600;51.362;6.686;2023-05-24T03:12:28;101911.00;;;8.00;100.00
13068;BME280;6600;51.362;6.686;2023-05-24T03:14:53;101905.84;;;7.98;100.00
13068;BME280;6600;51.362;6.686;2023-05-24T03:17:19;101908.66;;;7.97;100.00
13068;BME280;6600;51.362;6.686;2023-05-24T03:19:44;101906.53;;;7.92;100.00
13068;BME280;6600;51.362;6.686;2023-05-24T03:22:09;101906.38;;;7.86;100.00
13068;BME280;6600;51.362;6.686;2023-05-24T03:24:35;101910.03;;;7.85;100.00
13068;BME280;6600;51.362;6.686;2023-05-24T03:27:03;101905.38;;;7.79;100.00
13068;BME280;6600;51.362;6.686;2023-05-24T03:29:28;101908.34;;;7.84;100.00
13068;BME280;6600;51.362;6.686;2023-05-24T03:31:53;101900.84;;;7.79;100.00
13068;BME280;6600;51.362;6.686;2023-05-24T03:34:18;101906.38;;;7.78;100.00
13068;BME280;6600;51.362;6.686;2023-05-24T03:36:44;101906.69;;;7.83;100.00
13068;BME280;6600;51.362;6.686;2023-05-24T03:39:09;101912.84;;;7.83;100.00
13068;BME280;6600;51.362;6.686;2023-05-24T03:41:35;101905.38;;;7.79;100.00
13068;BME280;6600;51.362;6.686;2023-05-24T03:44:00;101917.06;;;7.86;100.00
13068;BME280;6600;51.362;6.686;2023-05-24T03:46:25;101919.53;;;7.87;100.00
13068;BME280;6600;51.362;6.686;2023-05-24T03:48:50;101912.38;;;7.96;100.00
13068;BME280;6600;51.362;6.686;2023-05-24T03:51:16;101914.50;;;8.00;100.00
13068;BME280;6600;51.362;6.686;2023-05-24T03:53:41;101921.53;;;8.01;100.00
13068;BME280;6600;51.362;6.686;2023-05-24T03:56:06;101914.66;;;8.07;100.00
13068;BME280;6600;51.362;6.686;2023-05-24T03:58:32;101917.50;;;8.05;100.00
13068;BME280;6600;51.362;6.686;2023-05-24T04:00:58;101923.00;;;8.04;100.00
13068;BME280;6600;51.362;6.686;2023-05-24T04:03:24;101922.16;;;8.11;100.00
13068;BME280;6600;51.362;6.686;2023-05-24T04:05:53;101918.16;;;8.16;100.00
13068;BME280;6600;51.362;6.686;2023-05-24T04:08:19;101917.66;;;8.20;100.00
13068;BME280;6600;51.362;6.686;2023-05-24T04:10:44;101919.66;;;8.18;100.00
13068;BME280;6600;51.362;6.686;2023-05-24T04:13:10;101921.31;;;8.27;100.00
13068;BME280;6600;51.362;6.686;2023-05-24T04:15:35;101912.09;;;8.38;100.00
13068;BME280;6600;51.362;6.686;2023-05-24T04:18:02;101914.59;;;8.47;100.00
13068;BME280;6600;51.362;6.686;2023-05-24T04:20:27;101919.88;;;8.55;100.00
13068;BME280;6600;51.362;6.686;2023-05-24T04:22:53;101921.34;;;8.66;100.00
13068;BME280;6600;51.362;6.686;2023-05-24T04:25:20;101926.81;;;8.73;100.00
13068;BME280;6600;51.362;6.686;2023-05-24T04:27:45;101923.41;;;8.87;100.00
13068;BME280;6600;51.362;6.686;2023-05-24T04:30:14;101926.84;;;9.03;100.00
13068;BME280;6600;51.362;6.686;2023-05-24T04:32:41;101921.56;;;9.18;100.00
13068;BME280;6600;51.362;6.686;2023-05-24T04:35:08;101929.69;;;9.33;100.00
13068;BME280;6600;51.362;6.686;2023-05-24T04:37:34;101928.22;;;9.45;100.00
13068;BME280;6600;51.362;6.686;2023-05-24T04:39:59;101930.50;;;9.56;100.00
13068;BME280;6600;51.362;6.686;2023-05-24T04:42:24;101932.28;;;9.63;100.00
13068;BME280;6600;51.362;6.686;2023-05-24T04:44:51;101932.59;;;9.69;100.00
13068;BME280;6600;51.362;6.686;2023-05-24T04:47:16;101937.59;;;9.72;100.00
13068;BME280;6600;51.362;6.686;2023-05-24T04:49:42;101940.91;;;9.74;100.00
13068;BME280;6600;51.362;6.686;2023-05-24T04:52:07;101945.72;;;9.78;100.00
13068;BME280;6600;51.362;6.686;2023-05-24T04:54:33;101945.81;;;9.85;100.00
13068;BME280;6600;51.362;6.686;2023-05-24T04:56:58;101950.19;;;9.86;100.00
13068;BME280;6600;51.362;6.686;2023-05-24T04:59:24;101949.94;;;9.73;99.92
13068;BME280;6600;51.362;6.686;2023-05-24T05:01:49;101957.59;;;9.76;99.78
13068;BME280;6600;51.362;6.686;2023-05-24T05:04:14;101957.72;;;9.82;99.94
13068;BME280;6600;51.362;6.686;2023-05-24T05:06:41;101956.53;;;9.85;100.00
13068;BME280;6600;51.362;6.686;2023-05-24T05:09:09;101951.91;;;9.79;100.00
13068;BME280;6600;51.362;6.686;2023-05-24T05:11:37;101968.31;;;9.76;100.00
13068;BME280;6600;51.362;6.686;2023-05-24T05:14:02;101965.75;;;9.59;100.00
13068;BME280;6600;51.362;6.686;2023-05-24T05:16:27;101973.22;;;9.72;100.00
13068;BME280;6600;51.362;6.686;2023-05-24T05:18:53;101972.38;;;9.72;100.00
13068;BME280;6600;51.362;6.686;2023-05-24T05:21:18;101972.97;;;9.82;100.00
13068;BME280;6600;51.362;6.686;2023-05-24T05:23:44;101971.94;;;9.83;100.00
13068;BME280;6600;51.362;6.686;2023-05-24T05:26:10;101974.38;;;9.92;99.84
13068;BME280;6600;51.362;6.686;2023-05-24T05:28:35;101983.69;;;9.96;100.00
13068;BME280;6600;51.362;6.686;2023-05-24T05:31:01;101982.09;;;10.10;99.56
13068;BME280;6600;51.362;6.686;2023-05-24T05:33:30;101976.03;;;10.16;99.23
13068;BME280;6600;51.362;6.686;2023-05-24T05:35:56;101967.56;;;10.27;98.90
13068;BME280;6600;51.362;6.686;2023-05-24T05:38:21;101967.63;;;10.48;98.74
13068;BME280;6600;51.362;6.686;2023-05-24T05:40:46;101968.69;;;10.47;97.34
13068;BME280;6600;51.362;6.686;2023-05-24T05:43:12;101961.63;;;10.76;97.61
13068;BME280;6600;51.362;6.686;2023-05-24T05:45:37;101965.50;;;10.88;96.35
13068;BME280;6600;51.362;6.686;2023-05-24T05:48:02;101959.84;;;10.97;96.01
13068;BME280;6600;51.362;6.686;2023-05-24T05:50:28;101964.91;;;11.07;96.18
13068;BME280;6600;51.362;6.686;2023-05-24T05:52:53;101971.94;;;11.08;95.72
13068;BME280;6600;51.362;6.686;2023-05-24T05:55:18;101970.06;;;11.23;95.83
13068;BME280;6600;51.362;6.686;2023-05-24T05:57:44;101975.88;;;11.27;94.69
13068;BME280;6600;51.362;6.686;2023-05-24T06:00:09;101958.72;;;11.42;94.32
13068;BME280;6600;51.362;6.686;2023-05-24T06:02:35;101967.25;;;11.31;93.71
13068;BME280;6600;51.362;6.686;2023-05-24T06:05:00;101959.22;;;11.52;94.18
13068;BME280;6600;51.362;6.686;2023-05-24T06:07:27;101963.22;;;11.78;93.41
13068;BME280;6600;51.362;6.686;2023-05-24T06:09:52;101959.25;;;11.95;92.99
13068;BME280;6600;51.362;6.686;2023-05-24T06:12:17;101970.88;;;12.02;92.32
13068;BME280;6600;51.362;6.686;2023-05-24T06:14:42;101961.16;;;11.80;91.22
13068;BME280;6600;51.362;6.686;2023-05-24T06:17:08;101965.16;;;11.69;91.83
13068;BME280;6600;51.362;6.686;2023-05-24T06:19:33;101968.53;;;11.71;92.14
13068;BME280;6600;51.362;6.686;2023-05-24T06:21:59;101966.00;;;11.70;91.47
13068;BME280;6600;51.362;6.686;2023-05-24T06:24:24;101976.00;;;11.76;91.91
13068;BME280;6600;51.362;6.686;2023-05-24T06:26:51;101986.56;;;11.62;92.24
13068;BME280;6600;51.362;6.686;2023-05-24T06:29:18;101987.81;;;11.60;92.20
13068;BME280;6600;51.362;6.686;2023-05-24T06:31:47;101985.94;;;11.75;93.22
13068;BME280;6600;51.362;6.686;2023-05-24T06:34:13;101990.19;;;11.91;91.68
13068;BME280;6600;51.362;6.686;2023-05-24T06:36:42;101990.09;;;12.27;91.72
13068;BME280;6600;51.362;6.686;2023-05-24T06:39:17;101985.78;;;12.66;89.90
13068;BME280;6600;51.362;6.686;2023-05-24T06:41:43;101992.16;;;13.00;89.48
13068;BME280;6600;51.362;6.686;2023-05-24T06:44:10;101981.81;;;13.03;87.58
13068;BME280;6600;51.362;6.686;2023-05-24T06:46:35;101981.75;;;13.31;86.29
13068;BME280;6600;51.362;6.686;2023-05-24T06:49:01;101974.75;;;13.43;86.87
13068;BME280;6600;51.362;6.686;2023-05-24T06:51:27;101980.72;;;13.39;85.73
13068;BME280;6600;51.362;6.686;2023-05-24T06:53:53;101985.06;;;12.86;85.56
13068;BME280;6600;51.362;6.686;2023-05-24T06:56:18;101985.53;;;12.96;86.23
13068;BME280;6600;51.362;6.686;2023-05-24T06:58:44;101990.63;;;13.19;86.64
13068;BME280;6600;51.362;6.686;2023-05-24T07:01:10;101980.28;;;13.22;85.71
13068;BME280;6600;51.362;6.686;2023-05-24T07:03:35;102000.28;;;13.06;85.25
13068;BME280;6600;51.362;6.686;2023-05-24T07:06:01;101983.22;;;13.34;85.21
13068;BME280;6600;51.362;6.686;2023-05-24T07:08:27;101984.22;;;13.26;84.78
13068;BME280;6600;51.362;6.686;2023-05-24T07:10:53;101987.78;;;13.40;85.21
13068;BME280;6600;51.362;6.686;2023-05-24T07:13:19;101985.28;;;13.38;85.13
13068;BME280;6600;51.362;6.686;2023-05-24T07:15:45;101994.34;;;13.24;85.19
13068;BME280;6600;51.362;6.686;2023-05-24T07:18:11;101997.06;;;12.90;86.29
13068;BME280;6600;51.362;6.686;2023-05-24T07:20:36;101997.38;;;12.67;88.13
13068;BME280;6600;51.362;6.686;2023-05-24T07:23:02;101994.97;;;12.44;89.04
13068;BME280;6600;51.362;6.686;2023-05-24T07:25:28;101994.28;;;12.36;89.58
13068;BME280;6600;51.362;6.686;2023-05-24T07:27:54;102003.25;;;12.22;89.26
13068;BME280;6600;51.362;6.686;2023-05-24T07:30:19;102003.25;;;12.22;89.63
13068;BME280;6600;51.362;6.686;2023-05-24T07:32:45;101996.38;;;12.40;89.70
13068;BME280;6600;51.362;6.686;2023-05-24T07:35:11;102000.16;;;12.52;89.07
13068;BME280;6600;51.362;6.686;2023-05-24T07:37:40;102005.63;;;12.65;89.52
13068;BME280;6600;51.362;6.686;2023-05-24T07:40:07;102003.63;;;12.74;88.37
13068;BME280;6600;51.362;6.686;2023-05-24T07:42:36;101997.16;;;13.03;87.21
13068;BME280;6600;51.362;6.686;2023-05-24T07:45:01;101997.63;;;13.13;85.73
13068;BME280;6600;51.362;6.686;2023-05-24T07:47:27;101993.91;;;13.14;85.33
13068;BME280;6600;51.362;6.686;2023-05-24T07:49:52;101996.91;;;13.45;85.51
13068;BME280;6600;51.362;6.686;2023-05-24T07:52:17;102001.94;;;13.75;85.00
13068;BME280;6600;51.362;6.686;2023-05-24T07:54:43;101994.91;;;13.87;83.75
13068;BME280;6600;51.362;6.686;2023-05-24T07:57:08;101989.94;;;14.23;83.14
13068;BME280;6600;51.362;6.686;2023-05-24T07:59:33;101984.13;;;14.00;82.07
13068;BME280;6600;51.362;6.686;2023-05-24T08:01:59;101988.69;;;13.93;81.22
13068;BME280;6600;51.362;6.686;2023-05-24T08:04:29;101994.53;;;14.03;80.91
13068;BME280;6600;51.362;6.686;2023-05-24T08:06:55;101991.59;;;14.04;79.61
13068;BME280;6600;51.362;6.686;2023-05-24T08:09:22;101983.28;;;14.32;79.90
13068;BME280;6600;51.362;6.686;2023-05-24T08:11:47;101992.81;;;14.68;77.40
13068;BME280;6600;51.362;6.686;2023-05-24T08:14:13;101997.31;;;14.87;77.73
13068;BME280;6600;51.362;6.686;2023-05-24T08:16:38;101991.84;;;15.06;77.98
13068;BME280;6600;51.362;6.686;2023-05-24T08:19:03;101992.28;;;14.97;78.41
13068;BME280;6600;51.362;6.686;2023-05-24T08:21:29;101995.41;;;14.94;79.60
13068;BME280;6600;51.362;6.686;2023-05-24T08:23:54;101994.88;;;14.65;79.76
13068;BME280;6600;51.362;6.686;2023-05-24T08:26:20;101994.50;;;14.23;80.41
13068;BME280;6600;51.362;6.686;2023-05-24T08:28:46;101993.28;;;13.99;81.21
13068;BME280;6600;51.362;6.686;2023-05-24T08:31:11;101994.50;;;13.96;81.59
13068;BME280;6600;51.362;6.686;2023-05-24T08:33:37;101988.91;;;13.85;81.79
13068;BME280;6600;51.362;6.686;2023-05-24T08:36:02;101989.31;;;13.88;81.41
13068;BME280;6600;51.362;6.686;2023-05-24T08:38:27;101993.28;;;13.86;81.28
13068;BME280;6600;51.362;6.686;2023-05-24T08:40:53;101994.53;;;14.09;81.33
13068;BME280;6600;51.362;6.686;2023-05-24T08:43:20;101994.91;;;14.26;79.86
13068;BME280;6600;51.362;6.686;2023-05-24T08:45:45;101990.38;;;14.46;79.12
13068;BME280;6600;51.362;6.686;2023-05-24T08:48:13;101996.56;;;14.01;77.00
13068;BME280;6600;51.362;6.686;2023-05-24T08:50:38;101980.81;;;14.17;77.72
13068;BME280;6600;51.362;6.686;2023-05-24T08:53:05;101985.38;;;14.17;77.48
13068;BME280;6600;51.362;6.686;2023-05-24T08:55:30;101975.84;;;14.34;76.32
13068;BME280;6600;51.362;6.686;2023-05-24T08:57:57;101978.28;;;14.75;75.84
13068;BME280;6600;51.362;6.686;2023-05-24T09:00:23;101976.78;;;15.30;75.51
13068;BME280;6600;51.362;6.686;2023-05-24T09:02:49;101966.03;;;15.17;72.63
13068;BME280;6600;51.362;6.686;2023-05-24T09:05:15;101970.94;;;15.33;72.39
13068;BME280;6600;51.362;6.686;2023-05-24T09:07:42;101967.09;;;15.85;73.31
13068;BME280;6600;51.362;6.686;2023-05-24T09:10:08;101968.06;;;15.66;71.16
13068;BME280;6600;51.362;6.686;2023-05-24T09:12:35;101963.69;;;15.72;72.04
13068;BME280;6600;51.362;6.686;2023-05-24T09:15:02;101963.56;;;15.15;70.45
13068;BME280;6600;51.362;6.686;2023-05-24T09:17:29;101965.47;;;15.46;71.02
13068;BME280;6600;51.362;6.686;2023-05-24T09:19:56;101960.44;;;15.56;71.99
13068;BME280;6600;51.362;6.686;2023-05-24T09:22:25;101966.97;;;15.74;72.66
13068;BME280;6600;51.362;6.686;2023-05-24T09:24:52;101968.75;;;15.61;72.73
13068;BME280;6600;51.362;6.686;2023-05-24T09:27:18;101974.34;;;15.22;73.59
13068;BME280;6600;51.362;6.686;2023-05-24T09:29:47;101959.72;;;15.36;74.57
13068;BME280;6600;51.362;6.686;2023-05-24T09:32:19;101969.38;;;15.19;73.11
13068;BME280;6600;51.362;6.686;2023-05-24T09:34:47;101962.06;;;15.26;71.80
13068;BME280;6600;51.362;6.686;2023-05-24T09:37:17;101966.03;;;15.17;73.32
13068;BME280;6600;51.362;6.686;2023-05-24T09:39:44;101967.31;;;15.14;74.37
13068;BME280;6600;51.362;6.686;2023-05-24T09:42:23;101966.72;;;15.06;74.79
13068;BME280;6600;51.362;6.686;2023-05-24T09:45:03;101966.56;;;14.94;74.74
13068;BME280;6600;51.362;6.686;2023-05-24T09:47:33;101962.09;;;14.62;74.90
13068;BME280;6600;51.362;6.686;2023-05-24T09:50:00;101968.56;;;14.41;75.06
13068;BME280;6600;51.362;6.686;2023-05-24T09:52:26;101968.41;;;14.36;74.11
13068;BME280;6600;51.362;6.686;2023-05-24T09:54:52;101966.72;;;14.35;74.26
13068;BME280;6600;51.362;6.686;2023-05-24T09:57:18;101957.09;;;14.65;75.19
13068;BME280;6600;51.362;6.686;2023-05-24T09:59:46;101953.47;;;14.98;74.27
13068;BME280;6600;51.362;6.686;2023-05-24T10:02:11;101939.72;;;15.44;73.20
13068;BME280;6600;51.362;6.686;2023-05-24T10:04:38;101942.66;;;15.74;70.17
13068;BME280;6600;51.362;6.686;2023-05-24T10:07:05;101937.94;;;15.62;68.87
13068;BME280;6600;51.362;6.686;2023-05-24T10:09:31;101944.50;;;15.48;70.18
13068;BME280;6600;51.362;6.686;2023-05-24T10:12:05;101946.91;;;15.25;70.88
13068;BME280;6600;51.362;6.686;2023-05-24T10:14:41;101947.81;;;15.50;71.11
13068;BME280;6600;51.362;6.686;2023-05-24T10:17:06;101947.53;;;15.58;71.00
13068;BME280;6600;51.362;6.686;2023-05-24T10:19:36;101949.47;;;15.51;71.97
13068;BME280;6600;51.362;6.686;2023-05-24T10:22:05;101957.75;;;15.56;71.09
13068;BME280;6600;51.362;6.686;2023-05-24T10:24:34;101948.84;;;15.49;70.31
13068;BME280;6600;51.362;6.686;2023-05-24T10:27:04;101954.84;;;15.83;70.38
13068;BME280;6600;51.362;6.686;2023-05-24T10:32:19;101945.41;;;16.16;66.40
13068;BME280;6600;51.362;6.686;2023-05-24T10:34:48;101949.06;;;16.04;64.87
13068;BME280;6600;51.362;6.686;2023-05-24T10:37:16;101951.06;;;16.33;64.85
13068;BME280;6600;51.362;6.686;2023-05-24T10:39:41;101954.53;;;16.40;65.51
13068;BME280;6600;51.362;6.686;2023-05-24T10:42:07;101952.84;;;16.21;65.32
13068;BME280;6600;51.362;6.686;2023-05-24T10:44:32;101956.72;;;16.07;66.82
13068;BME280;6600;51.362;6.686;2023-05-24T10:47:11;101946.03;;;15.94;66.11
13068;BME280;6600;51.362;6.686;2023-05-24T10:49:38;101947.06;;;15.93;67.66
13068;BME280;6600;51.362;6.686;2023-05-24T10:52:11;101946.53;;;15.84;68.06
13068;BME280;6600;51.362;6.686;2023-05-24T10:54:37;101936.81;;;15.77;67.96
13068;BME280;6600;51.362;6.686;2023-05-24T10:57:03;101936.63;;;16.21;67.67
13068;BME280;6600;51.362;6.686;2023-05-24T10:59:35;101929.13;;;16.41;67.47
13068;BME280;6600;51.362;6.686;2023-05-24T11:02:03;101947.56;;;16.51;67.77
13068;BME280;6600;51.362;6.686;2023-05-24T11:04:32;101942.00;;;16.03;68.24
13068;BME280;6600;51.362;6.686;2023-05-24T11:07:03;101936.59;;;16.03;69.89
13068;BME280;6600;51.362;6.686;2023-05-24T11:09:30;101938.22;;;15.86;68.73
13068;BME280;6600;51.362;6.686;2023-05-24T11:12:00;101935.97;;;16.01;69.14
13068;BME280;6600;51.362;6.686;2023-05-24T11:14:29;101935.97;;;16.01;70.15
13068;BME280;6600;51.362;6.686;2023-05-24T11:16:55;101939.63;;;15.88;69.31
13068;BME280;6600;51.362;6.686;2023-05-24T11:19:24;101934.16;;;15.70;69.60
13068;BME280;6600;51.362;6.686;2023-05-24T11:21:55;101929.66;;;15.64;70.67
13068;BME280;6600;51.362;6.686;2023-05-24T11:24:23;101934.50;;;15.49;67.99
13068;BME280;6600;51.362;6.686;2023-05-24T11:26:50;101931.44;;;15.39;68.26
13068;BME280;6600;51.362;6.686;2023-05-24T11:29:16;101935.19;;;15.38;69.25
13068;BME280;6600;51.362;6.686;2023-05-24T11:31:53;101927.84;;;15.20;70.82
13068;BME280;6600;51.362;6.686;2023-05-24T11:34:20;101934.03;;;15.27;70.52
13068;BME280;6600;51.362;6.686;2023-05-24T11:36:46;101927.41;;;15.23;70.73
13068;BME280;6600;51.362;6.686;2023-05-24T11:39:13;101937.03;;;15.06;71.51
13068;BME280;6600;51.362;6.686;2023-05-24T11:41:38;101937.00;;;15.12;70.88
13068;BME280;6600;51.362;6.686;2023-05-24T11:44:07;101935.13;;;15.13;70.18
13068;BME280;6600;51.362;6.686;2023-05-24T11:46:33;101930.00;;;14.98;70.92
13068;BME280;6600;51.362;6.686;2023-05-24T11:48:59;101930.13;;;15.16;71.05
13068;BME280;6600;51.362;6.686;2023-05-24T11:51:28;101942.81;;;15.16;70.39
13068;BME280;6600;51.362;6.686;2023-05-24T11:53:55;101937.38;;;15.23;69.49
13068;BME280;6600;51.362;6.686;2023-05-24T11:56:20;101942.75;;;15.23;70.24
13068;BME280;6600;51.362;6.686;2023-05-24T11:58:48;101934.03;;;15.27;69.72
13068;BME280;6600;51.362;6.686;2023-05-24T12:01:22;101933.25;;;15.45;69.98
13068;BME280;6600;51.362;6.686;2023-05-24T12:03:50;101938.00;;;15.56;69.21
13068;BME280;6600;51.362;6.686;2023-05-24T12:06:15;101932.44;;;15.76;69.03
13068;BME280;6600;51.362;6.686;2023-05-24T12:08:40;101922.97;;;15.91;69.29
13068;BME280;6600;51.362;6.686;2023-05-24T12:11:06;101924.84;;;15.91;67.73
13068;BME280;6600;51.362;6.686;2023-05-24T12:13:31;101924.00;;;16.15;67.51
13068;BME280;6600;51.362;6.686;2023-05-24T12:15:56;101935.41;;;16.17;68.13
13068;BME280;6600;51.362;6.686;2023-05-24T12:18:23;101931.53;;;16.31;67.46
13068;BME280;6600;51.362;6.686;2023-05-24T12:20:50;101936.94;;;16.31;66.04
13068;BME280;6600;51.362;6.686;2023-05-24T12:23:19;101928.38;;;16.34;66.52
13068;BME280;6600;51.362;6.686;2023-05-24T12:25:45;101931.41;;;16.44;66.89
13068;BME280;6600;51.362;6.686;2023-05-24T12:28:12;101927.56;;;16.52;66.11
13068;BME280;6600;51.362;6.686;2023-05-24T12:30:37;101929.16;;;16.78;66.33
13068;BME280;6600;51.362;6.686;2023-05-24T12:33:08;101931.59;;;16.86;65.24
13068;BME280;6600;51.362;6.686;2023-05-24T12:35:34;101929.09;;;16.66;66.36
13068;BME280;6600;51.362;6.686;2023-05-24T12:37:59;101931.88;;;16.59;65.66
13068;BME280;6600;51.362;6.686;2023-05-24T12:40:25;101925.31;;;16.49;65.39
13068;BME280;6600;51.362;6.686;2023-05-24T12:42:54;101925.41;;;16.60;65.98
13068;BME280;6600;51.362;6.686;2023-05-24T12:45:22;101934.59;;;16.59;66.30
13068;BME280;6600;51.362;6.686;2023-05-24T12:47:53;101929.84;;;16.73;65.62
13068;BME280;6600;51.362;6.686;2023-05-24T12:50:19;101926.84;;;16.81;64.67
13068;BME280;6600;51.362;6.686;2023-05-24T12:52:46;101918.75;;;16.93;64.43
13068;BME280;6600;51.362;6.686;2023-05-24T12:55:15;101918.47;;;16.83;64.82
13068;BME280;6600;51.362;6.686;2023-05-24T12:57:42;101923.28;;;16.99;67.67
13068;BME280;6600;51.362;6.686;2023-05-24T13:00:08;101926.75;;;16.88;65.14
13068;BME280;6600;51.362;6.686;2023-05-24T13:02:38;101922.53;;;16.92;66.18
13068;BME280;6600;51.362;6.686;2023-05-24T13:05:05;101919.38;;;16.77;64.41
13068;BME280;6600;51.362;6.686;2023-05-24T13:07:31;101923.59;;;16.73;66.14
13068;BME280;6600;51.362;6.686;2023-05-24T13:09:56;101920.50;;;16.87;65.36
13068;BME280;6600;51.362;6.686;2023-05-24T13:12:23;101914.53;;;16.97;65.08
13068;BME280;6600;51.362;6.686;2023-05-24T13:14:48;101927.88;;;16.62;65.14